Time;durP1;ratioP1;P1;durP2;ratioP2;P2;SDS_P1;SDS_P2;PMS_P1;PMS_P2;Temp;Humidity;BMP_temperature;BMP_pressure;BME280_temperature;BME280_humidity;BME280_pressure;Samples;Min_cycle;Max_cycle;Signal;HPM_P1;HPM_P2
2022/10/02 00:02:39;;;;;;;0.63;0.63;;;;;;;11.15;100.00;99958.03;6250805;22;20098;-85
2022/10/02 00:05:25;;;;;;;0.10;0.10;;;;;;;11.13;100.00;99963.22;6249732;22;20453;-86
2022/10/02 00:07:57;;;;;;;1.27;1.17;;;;;;;11.05;100.00;99956.34;6250723;22;20015;-86
2022/10/02 00:10:30;;;;;;;0.73;0.73;;;;;;;10.85;100.00;99941.88;6252754;22;20019;-86
2022/10/02 00:12:59;;;;;;;0.17;0.17;;;;;;;10.93;100.00;99939.66;6224166;22;20007;-86
2022/10/02 00:15:28;;;;;;;0.55;0.55;;;;;;;10.88;100.00;99951.34;6252936;22;20073;-85
2022/10/02 00:17:55;;;;;;;3.83;0.88;;;;;;;10.86;100.00;99954.53;6278138;22;20445;-85
2022/10/02 00:20:27;;;;;;;2.30;0.22;;;;;;;10.88;100.00;99963.19;6249767;22;20603;-88
2022/10/02 00:23:30;;;;;;;0.75;0.40;;;;;;;10.74;100.00;99958.84;6225353;22;20045;-88
2022/10/02 00:26:01;;;;;;;0.10;0.10;;;;;;;10.60;100.00;99953.69;6277890;22;20011;-89
2022/10/02 00:28:30;;;;;;;3.92;0.40;;;;;;;10.51;100.00;99958.31;6224951;22;20022;-88
2022/10/02 00:31:10;;;;;;;0.28;0.20;;;;;;;10.50;100.00;99959.53;6251295;22;20587;-88
2022/10/02 00:34:03;;;;;;;0.30;0.30;;;;;;;10.51;100.00;99977.75;6277325;22;20459;-88
2022/10/02 00:36:42;;;;;;;2.08;0.73;;;;;;;10.49;100.00;99977.38;6275657;22;20011;-85
2022/10/02 00:39:27;;;;;;;0.45;0.45;;;;;;;10.45;100.00;99969.16;6277650;22;20019;-89
2022/10/02 00:42:15;;;;;;;0.68;0.68;;;;;;;10.45;100.00;99968.38;6250890;22;20015;-90
2022/10/02 00:44:44;;;;;;;0.00;0.00;;;;;;;10.50;100.00;99973.41;6303611;22;20064;-88
2022/10/02 00:47:19;;;;;;;0.73;0.68;;;;;;;10.48;100.00;99978.59;6277868;22;20014;-88
2022/10/02 00:50:14;;;;;;;1.95;0.98;;;;;;;10.41;100.00;99985.13;6249847;22;20738;-88
2022/10/02 00:53:01;;;;;;;1.00;0.80;;;;;;;10.37;100.00;99986.44;6276345;22;20023;-88
2022/10/02 00:55:36;;;;;;;0.22;0.20;;;;;;;10.28;100.00;99982.28;6251429;22;20114;-88
2022/10/02 00:58:10;;;;;;;0.08;0.08;;;;;;;10.33;100.00;99980.19;6302922;22;20026;-87
2022/10/02 01:03:38;;;;;;;0.15;0.15;;;;;;;10.24;100.00;99981.59;6285124;22;20027;-78
2022/10/02 01:06:05;;;;;;;0.22;0.22;;;;;;;10.27;100.00;99971.66;6301114;22;20390;-77
2022/10/02 01:08:31;;;;;;;1.00;0.65;;;;;;;10.27;100.00;99975.19;6277133;22;20441;-78
2022/10/02 01:10:57;;;;;;;1.15;0.90;;;;;;;10.29;100.00;99972.75;6303870;22;20015;-78
2022/10/02 01:13:23;;;;;;;0.82;0.80;;;;;;;10.33;100.00;99980.19;6300998;22;20087;-78
2022/10/02 01:15:51;;;;;;;0.00;0.00;;;;;;;10.29;100.00;99994.94;6303580;22;20057;-78
2022/10/02 01:18:17;;;;;;;0.43;0.43;;;;;;;10.32;100.00;99981.41;6277419;22;20011;-77
2022/10/02 01:20:48;;;;;;;0.30;0.30;;;;;;;10.27;100.00;99985.50;6300802;22;20439;-77
2022/10/02 01:23:27;;;;;;;1.35;1.25;;;;;;;10.21;100.00;100004.66;6301669;22;20011;-77
2022/10/02 01:25:53;;;;;;;0.45;0.45;;;;;;;10.07;100.00;99987.59;6303690;22;20345;-76
2022/10/02 01:28:19;;;;;;;0.00;0.00;;;;;;;10.04;100.00;99992.00;6303036;22;20090;-76
2022/10/02 01:30:47;;;;;;;0.20;0.20;;;;;;;10.05;100.00;99990.78;6300924;22;20050;-76
2022/10/02 01:33:13;;;;;;;0.35;0.35;;;;;;;10.10;100.00;99995.81;6307522;22;20015;-77
2022/10/02 01:35:39;;;;;;;0.20;0.20;;;;;;;10.08;100.00;99986.34;6304446;22;20085;-78
2022/10/02 01:38:07;;;;;;;0.52;0.52;;;;;;;10.10;100.00;99992.25;6333388;22;20037;-78
2022/10/02 01:40:35;;;;;;;0.45;0.45;;;;;;;10.13;100.00;100000.47;6304397;22;20017;-78
2022/10/02 01:43:15;;;;;;;0.10;0.10;;;;;;;10.16;100.00;99980.22;6306313;22;20023;-77
2022/10/02 01:45:57;;;;;;;0.38;0.38;;;;;;;10.20;100.00;99997.53;6309128;22;20014;-78
2022/10/02 01:48:45;;;;;;;1.02;0.93;;;;;;;10.19;100.00;100001.53;6334122;22;20015;-78
2022/10/02 01:51:19;;;;;;;0.15;0.15;;;;;;;10.22;100.00;99997.91;6305830;22;20011;-78
2022/10/02 01:53:49;;;;;;;;;;;;;;;10.26;100.00;99995.81;6308194;22;20512;-76
2022/10/02 01:56:23;;;;;;;0.20;0.20;;;;;;;10.26;100.00;99990.28;6334521;22;20335;-76
2022/10/02 01:59:27;;;;;;;0.98;0.65;;;;;;;10.31;100.00;99993.72;6308054;22;20038;-77
2022/10/02 02:01:59;;;;;;;1.00;0.28;;;;;;;10.28;100.00;99987.84;6325984;22;20037;-76
2022/10/02 02:04:28;;;;;;;0.52;0.32;;;;;;;10.26;100.00;99989.50;6275770;22;20041;-76
2022/10/02 02:07:12;;;;;;;0.32;0.30;;;;;;;10.20;100.00;99978.16;6276307;22;20011;-76
2022/10/02 02:09:42;;;;;;;0.00;0.00;;;;;;;10.23;100.00;100009.78;6301110;22;20157;-77
2022/10/02 02:12:19;;;;;;;0.15;0.15;;;;;;;10.24;100.00;100014.88;6302204;22;20098;-77
2022/10/02 02:14:52;;;;;;;0.30;0.30;;;;;;;10.24;100.00;100020.41;6304264;22;20015;-77
2022/10/02 02:17:23;;;;;;;0.22;0.22;;;;;;;10.24;100.00;100020.41;6276667;22;20098;-78
2022/10/02 02:20:05;;;;;;;1.25;1.17;;;;;;;10.28;100.00;100014.78;6275264;22;20007;-77
2022/10/02 02:22:43;;;;;;;0.25;0.25;;;;;;;10.24;100.00;100025.16;6250723;22;20471;-77
2022/10/02 02:25:13;;;;;;;0.03;0.03;;;;;;;10.21;100.00;100026.84;6275445;22;20066;-77
2022/10/02 02:27:40;;;;;;;0.57;0.57;;;;;;;10.17;100.00;100030.91;6275277;22;20341;-77
2022/10/02 02:30:10;;;;;;;1.23;0.65;;;;;;;10.14;100.00;100043.63;6274427;22;20397;-77
2022/10/02 02:32:39;;;;;;;1.10;1.10;;;;;;;10.08;100.00;100042.56;6301831;22;20072;-77
2022/10/02 02:35:08;;;;;;;1.13;1.05;;;;;;;10.00;100.00;100038.41;6301944;22;20021;-77
2022/10/02 02:37:35;;;;;;;1.00;0.40;;;;;;;9.92;100.00;100048.09;6251013;22;20460;-78
2022/10/02 02:40:14;;;;;;;0.63;0.63;;;;;;;9.96;100.00;100043.25;6250770;22;20386;-77
2022/10/02 02:42:43;;;;;;;0.43;0.43;;;;;;;9.94;100.00;100034.63;6249915;22;20019;-77
2022/10/02 02:45:12;;;;;;;0.50;0.50;;;;;;;9.95;100.00;100047.25;6276589;22;20015;-77
2022/10/02 02:47:43;;;;;;;0.03;0.03;;;;;;;9.79;100.00;100041.69;6275795;22;20018;-77
2022/10/02 02:50:32;;;;;;;6.40;0.63;;;;;;;9.72;100.00;100050.16;6273228;22;20444;-77
2022/10/02 02:53:02;;;;;;;0.15;0.15;;;;;;;9.67;100.00;100058.97;6277225;22;20008;-77
2022/10/02 02:55:31;;;;;;;0.05;0.05;;;;;;;9.51;100.00;100067.25;6275418;22;20018;-77
2022/10/02 02:58:07;;;;;;;0.10;0.10;;;;;;;9.54;100.00;100088.56;6302782;22;20007;-77
2022/10/02 03:00:32;;;;;;;16.35;0.77;;;;;;;9.49;100.00;100072.44;6303866;22;20553;-77
2022/10/02 03:02:58;;;;;;;0.47;0.47;;;;;;;9.50;100.00;100071.25;6301370;22;20090;-78
2022/10/02 03:05:24;;;;;;;0.25;0.25;;;;;;;9.40;100.00;100072.25;6301402;22;20027;-77
2022/10/02 03:07:53;;;;;;;0.03;0.03;;;;;;;9.55;100.00;100087.34;6303456;22;20008;-78
2022/10/02 03:10:39;;;;;;;0.05;0.05;;;;;;;9.59;100.00;100065.88;6275146;22;20016;-77
2022/10/02 03:13:29;;;;;;;8.15;2.38;;;;;;;9.60;100.00;100081.31;6274404;22;20015;-78
2022/10/02 03:15:58;;;;;;;0.80;0.75;;;;;;;9.56;100.00;100086.13;6304051;22;20061;-77
2022/10/02 03:18:26;;;;;;;0.40;0.40;;;;;;;9.53;100.00;100093.31;6305754;22;20003;-78
2022/10/02 03:21:01;;;;;;;0.40;0.30;;;;;;;9.48;100.00;100095.81;6302684;22;20016;-78
2022/10/02 03:23:35;;;;;;;1.10;1.00;;;;;;;9.48;100.00;100104.91;6277091;22;20022;-78
2022/10/02 03:26:14;;;;;;;0.30;0.30;;;;;;;9.32;100.00;100113.94;6278327;22;20015;-78
2022/10/02 03:28:52;;;;;;;0.10;0.10;;;;;;;9.38;100.00;100124.50;6302576;22;20003;-77
2022/10/02 03:31:19;;;;;;;0.20;0.20;;;;;;;9.38;100.00;100132.81;6278417;22;20011;-78
2022/10/02 03:33:45;;;;;;;1.25;1.15;;;;;;;9.35;100.00;100126.91;6277735;22;20345;-78
2022/10/02 03:36:13;;;;;;;0.45;0.43;;;;;;;9.34;100.00;100130.88;6303098;22;20007;-78
2022/10/02 03:38:39;;;;;;;0.35;0.30;;;;;;;9.29;100.00;100134.16;6305331;22;20019;-78
2022/10/02 03:41:05;;;;;;;0.47;0.47;;;;;;;9.13;100.00;100119.47;6278149;22;20074;-77
2022/10/02 03:43:30;;;;;;;0.50;0.50;;;;;;;9.20;100.00;100136.72;6303387;22;20433;-77
2022/10/02 03:45:56;;;;;;;0.50;0.50;;;;;;;9.21;100.00;100138.28;6278431;22;20011;-77
2022/10/02 03:48:21;;;;;;;0.45;0.45;;;;;;;9.24;100.00;100142.97;6304854;22;20483;-78
2022/10/02 03:50:49;;;;;;;0.30;0.30;;;;;;;9.19;100.00;100137.13;6275504;22;20011;-78
2022/10/02 03:53:17;;;;;;;0.88;0.52;;;;;;;9.19;100.00;100148.97;6305525;22;20007;-77
2022/10/02 03:55:46;;;;;;;0.35;0.28;;;;;;;9.20;100.00;100155.31;6275389;22;20015;-77
2022/10/02 03:58:14;;;;;;;0.20;0.20;;;;;;;9.18;100.00;100155.72;6304419;22;20015;-77
2022/10/02 04:01:01;;;;;;;0.40;0.40;;;;;;;9.16;100.00;100158.13;6306375;22;20011;-77
2022/10/02 04:03:34;;;;;;;0.75;0.60;;;;;;;9.04;100.00;100155.22;6275339;22;20344;-77
2022/10/02 04:06:13;;;;;;;0.88;0.88;;;;;;;9.08;100.00;100153.94;6304148;22;20497;-77
2022/10/02 04:09:09;;;;;;;0.88;0.80;;;;;;;9.07;100.00;100162.66;6278022;22;20034;-77
2022/10/02 04:11:40;;;;;;;0.03;0.03;;;;;;;9.07;100.00;100157.13;6302909;22;20019;-77
2022/10/02 04:14:18;;;;;;;1.17;0.70;;;;;;;9.09;100.00;100165.78;6277679;22;20414;-76
2022/10/02 04:16:51;;;;;;;0.73;0.73;;;;;;;9.09;100.00;100169.34;6277435;22;20085;-77
2022/10/02 04:19:28;;;;;;;0.00;0.00;;;;;;;9.10;100.00;100159.81;6275978;22;20106;-77
2022/10/02 04:21:58;;;;;;;0.30;0.30;;;;;;;9.15;100.00;100161.31;6277778;22;20011;-77
2022/10/02 04:24:37;;;;;;;1.67;1.58;;;;;;;9.21;100.00;100168.72;6277425;22;20019;-77
2022/10/02 04:27:08;;;;;;;0.80;0.65;;;;;;;9.24;100.00;100173.41;6277528;22;20011;-77
2022/10/02 04:30:02;;;;;;;0.15;0.15;;;;;;;9.28;100.00;100165.81;6303699;22;20385;-78
2022/10/02 04:32:33;;;;;;;0.37;0.37;;;;;;;9.24;100.00;100167.88;6300665;22;20144;-77
2022/10/02 04:34:58;;;;;;;0.88;0.85;;;;;;;9.12;100.00;100165.72;6303721;22;20248;-77
2022/10/02 04:37:30;;;;;;;0.65;0.65;;;;;;;9.14;100.00;100168.84;6277754;22;19999;-77
2022/10/02 04:40:18;;;;;;;0.25;0.10;;;;;;;9.15;100.00;100184.25;6305759;22;20014;-78
2022/10/02 04:42:48;;;;;;;0.22;0.22;;;;;;;9.11;100.00;100193.81;6303422;22;20003;-77
2022/10/02 04:45:32;;;;;;;2.03;0.40;;;;;;;9.07;100.00;100204.16;6276417;22;20011;-77
2022/10/02 04:48:03;;;;;;;0.80;0.52;;;;;;;8.99;100.00;100197.97;6277259;22;20086;-77
2022/10/02 04:50:47;;;;;;;0.45;0.45;;;;;;;8.97;100.00;100197.63;6302370;22;20019;-77
2022/10/02 04:53:16;;;;;;;4.80;1.17;;;;;;;8.95;100.00;100191.72;6304780;22;20015;-77
2022/10/02 04:55:58;;;;;;;0.32;0.32;;;;;;;8.93;100.00;100201.66;6304662;22;20014;-78
2022/10/02 04:58:26;;;;;;;1.52;1.42;;;;;;;9.01;100.00;100203.88;6249794;22;20041;-77
2022/10/02 05:01:10;;;;;;;0.35;0.35;;;;;;;8.97;100.00;100205.94;6302864;22;20016;-77
2022/10/02 05:03:55;;;;;;;0.15;0.15;;;;;;;8.98;100.00;100220.56;6303967;22;20457;-78
2022/10/02 05:06:38;;;;;;;0.10;0.10;;;;;;;8.88;100.00;100216.75;6275134;22;20007;-78
2022/10/02 05:09:04;;;;;;;;;;;;;;;8.88;100.00;100219.50;6306214;22;20109;-77
2022/10/02 05:11:48;;;;;;;0.00;0.00;;;;;;;8.78;100.00;100214.94;6303475;22;20265;-77
2022/10/02 05:14:33;;;;;;;0.63;0.63;;;;;;;8.86;100.00;100222.69;6303517;22;20011;-77
2022/10/02 05:17:37;;;;;;;0.20;0.20;;;;;;;8.85;100.00;100223.13;6275441;22;20011;-77
2022/10/02 05:20:29;;;;;;;0.55;0.55;;;;;;;8.85;100.00;100215.63;6283400;22;20024;-78
2022/10/02 05:23:08;;;;;;;0.35;0.35;;;;;;;8.79;100.00;100222.03;6304085;22;20461;-78
2022/10/02 05:25:42;;;;;;;0.98;0.93;;;;;;;8.85;100.00;100242.50;6301959;22;20041;-78
2022/10/02 05:28:24;;;;;;;1.35;0.90;;;;;;;8.84;100.00;100246.47;6301624;22;20069;-78
2022/10/02 05:31:12;;;;;;;0.52;0.52;;;;;;;8.93;100.00;100238.41;6277177;22;20437;-78
2022/10/02 05:33:47;;;;;;;0.50;0.43;;;;;;;9.02;100.00;100237.88;6300853;22;20467;-78
2022/10/02 05:36:38;;;;;;;0.30;0.30;;;;;;;9.16;100.00;100241.16;6304040;22;20053;-78
2022/10/02 05:39:10;;;;;;;0.08;0.08;;;;;;;9.28;100.00;100237.78;6276438;22;20029;-77
2022/10/02 05:42:19;;;;;;;1.88;0.55;;;;;;;9.49;100.00;100230.28;6274570;22;20383;-77
2022/10/02 05:44:53;;;;;;;0.68;0.65;;;;;;;9.60;100.00;100231.63;6301781;22;20045;-77
2022/10/02 05:47:21;;;;;;;;;;;;;;;9.67;100.00;100247.31;6272727;22;20038;-77
2022/10/02 05:50:00;;;;;;;1.10;1.05;;;;;;;9.62;100.00;100251.38;6248506;22;19985;-77
2022/10/02 05:52:36;;;;;;;0.25;0.25;;;;;;;9.46;100.00;100258.81;6273178;22;20025;-77
2022/10/02 05:55:01;;;;;;;0.35;0.35;;;;;;;9.52;100.00;100257.13;6299079;22;20115;-77
2022/10/02 05:57:33;;;;;;;0.95;0.32;;;;;;;9.54;100.00;100265.78;6275896;22;20337;-76
2022/10/02 06:00:07;;;;;;;0.22;0.22;;;;;;;9.58;100.00;100260.97;6303388;22;20011;-76
2022/10/02 06:03:13;;;;;;;0.95;0.95;;;;;;;9.72;100.00;100266.22;6281956;22;20019;-76
2022/10/02 06:05:56;;;;;;;0.20;0.20;;;;;;;9.92;100.00;100269.78;6276454;22;20387;-78
2022/10/02 06:08:41;;;;;;;0.20;0.20;;;;;;;10.20;100.00;100285.84;6277185;22;20015;-77
2022/10/02 06:11:12;;;;;;;0.45;0.45;;;;;;;10.44;100.00;100291.28;6303257;22;20019;-76
2022/10/02 06:13:57;;;;;;;1.40;1.30;;;;;;;10.64;100.00;100295.56;6302981;22;20015;-77
2022/10/02 06:16:32;;;;;;;0.75;0.75;;;;;;;10.54;100.00;100309.69;6275907;22;20011;-78
2022/10/02 06:19:02;;;;;;;0.55;0.55;;;;;;;10.69;100.00;100313.69;6276048;22;20031;-77
2022/10/02 06:22:04;;;;;;;1.00;0.88;;;;;;;10.80;100.00;100316.25;6304723;22;20050;-77
2022/10/02 06:24:34;;;;;;;3.50;0.75;;;;;;;11.03;100.00;100305.75;6277180;22;20039;-77
2022/10/02 06:27:03;;;;;;;2.00;0.38;;;;;;;11.28;100.00;100312.69;6275965;22;20015;-77
2022/10/02 06:29:49;;;;;;;0.32;0.32;;;;;;;11.46;100.00;100307.47;6276834;22;20011;-78
2022/10/02 06:32:14;;;;;;;0.70;0.70;;;;;;;11.80;100.00;100318.09;6303099;22;20019;-78
2022/10/02 06:34:40;;;;;;;0.98;0.60;;;;;;;12.05;100.00;100316.19;6303753;22;20020;-77
2022/10/02 06:37:27;;;;;;;1.45;1.00;;;;;;;12.35;100.00;100322.50;6275724;22;20009;-78
2022/10/02 06:40:32;;;;;;;0.95;0.80;;;;;;;12.58;100.00;100324.97;6251017;22;20034;-77
2022/10/02 06:43:19;;;;;;;1.67;1.27;;;;;;;12.77;100.00;100331.56;6275262;22;20012;-77
2022/10/02 06:45:59;;;;;;;0.63;0.63;;;;;;;13.15;100.00;100328.78;6252392;22;20030;-79
2022/10/02 06:49:10;;;;;;;0.00;0.00;;;;;;;13.43;100.00;100336.19;6274313;22;20077;-79
2022/10/02 06:51:49;;;;;;;0.38;0.35;;;;;;;13.57;100.00;100332.16;6302217;22;20015;-78
2022/10/02 06:54:48;;;;;;;0.28;0.28;;;;;;;13.67;100.00;100331.78;6276111;22;20093;-78
2022/10/02 06:57:21;;;;;;;0.52;0.52;;;;;;;13.64;100.00;100329.13;6301095;22;20022;-78
2022/10/02 07:00:06;;;;;;;1.75;0.63;;;;;;;13.43;100.00;100344.56;6303707;22;20033;-78
2022/10/02 07:02:58;;;;;;;0.17;0.15;;;;;;;13.38;100.00;100350.72;6276537;22;20421;-78
2022/10/02 07:05:42;;;;;;;0.25;0.25;;;;;;;13.30;100.00;100341.81;6302566;22;20019;-78
2022/10/02 07:08:36;;;;;;;0.10;0.10;;;;;;;13.44;100.00;100326.63;6276257;22;20015;-78
2022/10/02 07:11:34;;;;;;;1.00;0.80;;;;;;;13.68;100.00;100329.78;6276382;22;20014;-77
2022/10/02 07:14:19;;;;;;;0.10;0.10;;;;;;;13.84;100.00;100327.59;6276319;22;20019;-76
2022/10/02 07:17:15;;;;;;;0.40;0.40;;;;;;;14.11;100.00;100340.22;6301614;22;20019;-79
2022/10/02 07:20:11;;;;;;;0.38;0.38;;;;;;;14.11;100.00;100359.75;6304299;22;20064;-79
2022/10/02 07:23:08;;;;;;;0.10;0.10;;;;;;;14.12;100.00;100350.13;6275019;22;20026;-77
2022/10/02 07:25:41;;;;;;;0.17;0.17;;;;;;;14.13;100.00;100351.69;6297901;22;20038;-77
2022/10/02 07:28:30;;;;;;;0.15;0.15;;;;;;;14.13;100.00;100357.25;6299101;22;20011;-77
2022/10/02 07:31:30;;;;;;;0.63;0.50;;;;;;;14.05;100.00;100355.97;6299363;22;20023;-78
2022/10/02 07:34:12;;;;;;;0.22;0.22;;;;;;;13.90;100.00;100361.28;6274884;22;20054;-76
2022/10/02 07:36:48;;;;;;;0.63;0.57;;;;;;;13.93;100.00;100355.56;6274859;22;20019;-76
2022/10/02 07:39:35;;;;;;;0.10;0.10;;;;;;;13.98;100.00;100365.38;6248949;22;20026;-77
2022/10/02 07:42:00;;;;;;;1.02;0.47;;;;;;;14.05;100.00;100361.53;6300276;22;20026;-76
2022/10/02 07:45:03;;;;;;;0.08;0.00;;;;;;;14.13;100.00;100371.22;6302743;22;20011;-77
2022/10/02 07:47:50;;;;;;;0.32;0.32;;;;;;;14.30;100.00;100367.00;6304015;22;20030;-78
2022/10/02 07:50:25;;;;;;;0.88;0.55;;;;;;;14.44;100.00;100361.69;6304413;22;20057;-77
2022/10/02 07:52:54;;;;;;;0.10;0.10;;;;;;;14.46;100.00;100350.09;6301405;22;20003;-77
2022/10/02 07:55:23;;;;;;;1.13;1.02;;;;;;;14.60;100.00;100363.50;6304579;22;20022;-77
2022/10/02 07:57:55;;;;;;;0.20;0.20;;;;;;;14.73;100.00;100372.56;6277120;22;20018;-77
2022/10/02 08:00:23;;;;;;;0.43;0.43;;;;;;;14.79;100.00;100354.00;6303150;22;20011;-77
2022/10/02 08:03:05;;;;;;;0.80;0.77;;;;;;;14.96;100.00;100362.94;6275903;22;20042;-77
2022/10/02 08:05:37;;;;;;;0.22;0.22;;;;;;;15.07;100.00;100354.09;6277743;22;20011;-79
2022/10/02 08:08:11;;;;;;;0.10;0.10;;;;;;;15.19;100.00;100358.81;6276923;22;20018;-78
2022/10/02 08:10:38;;;;;;;0.17;0.17;;;;;;;15.32;100.00;100354.66;6276888;22;20019;-77
2022/10/02 08:13:10;;;;;;;0.38;0.38;;;;;;;15.40;100.00;100347.53;6279034;22;20042;-79
2022/10/02 08:15:37;;;;;;;0.30;0.30;;;;;;;15.39;100.00;100345.19;6304524;22;20015;-80
2022/10/02 08:18:12;;;;;;;0.63;0.32;;;;;;;15.50;100.00;100344.78;6278952;22;20100;-79
2022/10/02 08:20:40;;;;;;;0.13;0.10;;;;;;;15.63;100.00;100335.03;6227293;22;20023;-78
2022/10/02 08:23:21;;;;;;;0.15;0.15;;;;;;;16.10;100.00;100342.16;6276081;22;20453;-78
2022/10/02 08:25:55;;;;;;;0.40;0.40;;;;;;;16.25;100.00;100343.09;6277131;22;20016;-78
2022/10/02 08:28:27;;;;;;;0.15;0.15;;;;;;;16.34;100.00;100340.28;6302953;22;20341;-78
2022/10/02 08:30:53;;;;;;;0.40;0.40;;;;;;;16.34;100.00;100345.88;6276390;22;20344;-78
2022/10/02 08:33:20;;;;;;;0.98;0.98;;;;;;;16.49;100.00;100332.00;6303003;22;19999;-78
2022/10/02 08:36:15;;;;;;;0.65;0.47;;;;;;;16.58;100.00;100341.19;6276059;22;20015;-78
2022/10/02 08:38:45;;;;;;;0.50;0.28;;;;;;;16.67;100.00;100335.56;6304656;22;20025;-78
2022/10/02 08:41:23;;;;;;;0.20;0.20;;;;;;;16.66;100.00;100319.25;6278009;22;20019;-78
2022/10/02 08:44:07;;;;;;;0.20;0.20;;;;;;;16.42;100.00;100330.31;6306248;22;20098;-78
2022/10/02 08:46:55;;;;;;;0.25;0.25;;;;;;;16.63;100.00;100328.56;6305704;22;20003;-78
2022/10/02 08:49:51;;;;;;;0.43;0.30;;;;;;;16.81;100.00;100322.13;6305047;22;20444;-77
2022/10/02 08:52:26;;;;;;;0.20;0.20;;;;;;;16.97;100.00;100324.56;6277370;22;20015;-78
2022/10/02 08:55:04;;;;;;;0.65;0.35;;;;;;;17.00;100.00;100312.41;6305665;22;20458;-77
2022/10/02 08:57:59;;;;;;;0.20;0.20;;;;;;;17.20;100.00;100315.41;6278369;22;20253;-78
2022/10/02 09:00:24;;;;;;;0.05;0.05;;;;;;;17.23;100.00;100317.25;6278402;22;20034;-79
2022/10/02 09:03:08;;;;;;;0.63;0.63;;;;;;;17.20;100.00;100309.78;6304449;22;20019;-77
2022/10/02 09:06:08;;;;;;;0.08;0.08;;;;;;;17.26;100.00;100310.72;6305400;22;20015;-77
2022/10/02 09:09:10;;;;;;;1.05;0.57;;;;;;;17.36;100.00;100306.59;6305367;22;20468;-78
2022/10/02 09:11:43;;;;;;;0.25;0.25;;;;;;;17.34;100.00;100303.50;6304267;22;20016;-78
2022/10/02 09:14:42;;;;;;;0.35;0.22;;;;;;;17.30;100.00;100297.28;6305090;22;20440;-78
2022/10/02 09:17:08;;;;;;;0.73;0.35;;;;;;;17.42;100.00;100287.09;6305607;22;20380;-78
2022/10/02 09:19:57;;;;;;;1.13;1.02;;;;;;;17.48;100.00;100285.94;6305119;22;20068;-78
2022/10/02 09:22:31;;;;;;;0.10;0.10;;;;;;;17.69;100.00;100278.50;6304431;22;20050;-78
2022/10/02 09:25:12;;;;;;;0.57;0.57;;;;;;;17.84;100.00;100262.44;6305488;22;20120;-78
2022/10/02 09:27:38;;;;;;;0.13;0.13;;;;;;;17.97;100.00;100260.16;6304688;22;20019;-79
2022/10/02 09:30:25;;;;;;;0.52;0.52;;;;;;;18.14;100.00;100241.59;6304533;22;20011;-78
2022/10/02 09:32:54;;;;;;;0.17;0.17;;;;;;;18.27;99.58;100260.16;6304682;22;20011;-78
2022/10/02 09:35:53;;;;;;;0.63;0.55;;;;;;;17.97;97.82;100248.16;6305422;22;20007;-80
2022/10/02 09:38:20;;;;;;;0.10;0.10;;;;;;;18.00;100.00;100252.78;6305480;22;20019;-78
2022/10/02 09:41:14;;;;;;;0.47;0.43;;;;;;;18.02;100.00;100258.72;6305050;22;20038;-78
2022/10/02 09:44:02;;;;;;;;;;;;;;;18.01;100.00;100257.16;6304502;22;20021;-78
2022/10/02 09:47:03;;;;;;;0.15;0.15;;;;;;;18.05;100.00;100271.75;6305243;22;19914;-78
2022/10/02 09:49:48;;;;;;;0.30;0.30;;;;;;;18.07;100.00;100264.44;6276687;22;20018;-78
2022/10/02 09:52:25;;;;;;;0.28;0.10;;;;;;;18.14;100.00;100258.44;6277649;22;20019;-78
2022/10/02 09:55:05;;;;;;;0.00;0.00;;;;;;;18.10;96.27;100262.69;6305386;22;20015;-78
2022/10/02 09:57:46;;;;;;;0.98;0.52;;;;;;;18.04;97.28;100254.16;6304411;22;20445;-78
2022/10/02 10:00:42;;;;;;;1.45;0.73;;;;;;;18.08;100.00;100268.00;6251670;22;20045;-78
2022/10/02 10:03:07;;;;;;;0.10;0.10;;;;;;;18.13;100.00;100272.94;6304232;22;20022;-78
2022/10/02 10:05:49;;;;;;;0.10;0.10;;;;;;;18.14;100.00;100271.69;6304356;22;20330;-78
2022/10/02 10:09:08;;;;;;;0.30;0.25;;;;;;;18.06;100.00;100262.09;6277250;22;20326;-78
2022/10/02 10:11:49;;;;;;;0.35;0.32;;;;;;;18.04;100.00;100271.00;6214649;23;20083;-78
2022/10/02 10:14:44;;;;;;;0.00;0.00;;;;;;;17.82;100.00;100276.19;6240586;23;20099;-78
2022/10/02 10:17:31;;;;;;;0.32;0.32;;;;;;;17.86;100.00;100276.00;6295725;22;20023;-78
2022/10/02 10:20:21;;;;;;;0.10;0.10;;;;;;;17.86;100.00;100264.78;6304991;22;20082;-78
2022/10/02 10:23:17;;;;;;;0.08;0.08;;;;;;;17.81;99.53;100262.63;6277425;22;20011;-78
2022/10/02 10:25:50;;;;;;;1.05;0.60;;;;;;;17.79;99.46;100270.78;6277844;22;20354;-77
2022/10/02 10:28:41;;;;;;;0.05;0.05;;;;;;;17.77;100.00;100273.28;6304602;22;20403;-78
2022/10/02 10:31:41;;;;;;;0.00;0.00;;;;;;;17.81;100.00;100271.06;6277403;22;20015;-78
2022/10/02 10:34:19;;;;;;;0.10;0.10;;;;;;;17.90;100.00;100277.38;6276513;22;20348;-78
2022/10/02 10:40:12;;;;;;;0.20;0.13;;;;;;;17.73;100.00;100279.06;6303270;22;20022;-78
2022/10/02 10:43:03;;;;;;;0.20;0.10;;;;;;;17.77;100.00;100262.84;6277630;22;20015;-78
2022/10/02 10:45:45;;;;;;;0.05;0.05;;;;;;;17.70;100.00;100257.59;6303903;22;20091;-78
2022/10/02 10:48:11;;;;;;;0.47;0.08;;;;;;;17.61;99.25;100266.88;6252135;22;20081;-78
2022/10/02 10:51:13;;;;;;;0.20;0.20;;;;;;;17.48;99.98;100263.50;6304079;22;20368;-78
2022/10/02 10:54:12;;;;;;;0.08;0.08;;;;;;;17.42;100.00;100265.44;6277479;22;20460;-78
2022/10/02 10:56:43;;;;;;;0.10;0.10;;;;;;;17.49;100.00;100267.88;6304645;22;20019;-78
2022/10/02 10:59:47;;;;;;;0.40;0.32;;;;;;;17.55;100.00;100254.72;6277660;22;20041;-78
2022/10/02 11:02:38;;;;;;;0.03;0.03;;;;;;;17.63;100.00;100267.13;6252695;22;20441;-78
2022/10/02 11:05:22;;;;;;;0.20;0.10;;;;;;;17.59;100.00;100263.75;6302458;22;20042;-78
2022/10/02 11:08:06;;;;;;;;;;;;;;;17.55;100.00;100257.53;6305220;22;20043;-78
2022/10/02 11:10:39;;;;;;;0.10;0.10;;;;;;;17.56;100.00;100258.28;6304250;22;19968;-78
2022/10/02 11:13:18;;;;;;;0.10;0.10;;;;;;;17.56;100.00;100258.28;6304952;22;20011;-78
2022/10/02 11:16:17;;;;;;;0.55;0.52;;;;;;;17.54;100.00;100261.59;6303158;22;20007;-78
2022/10/02 11:19:13;;;;;;;1.58;0.50;;;;;;;17.55;100.00;100263.13;6304521;22;20019;-80
2022/10/02 11:21:48;;;;;;;0.13;0.13;;;;;;;17.61;100.00;100260.47;6247827;22;20453;-77
2022/10/02 11:24:25;;;;;;;0.22;0.22;;;;;;;17.58;100.00;100264.25;6303630;22;20027;-77
2022/10/02 11:27:23;;;;;;;0.03;0.03;;;;;;;17.52;100.00;100264.09;6304401;22;20019;-77
2022/10/02 11:30:11;;;;;;;0.00;0.00;;;;;;;17.55;100.00;100262.38;6250816;22;20050;-77
2022/10/02 11:32:58;;;;;;;0.00;0.00;;;;;;;17.55;100.00;100268.75;6276984;22;20012;-77
2022/10/02 11:35:51;;;;;;;0.10;0.10;;;;;;;17.44;100.00;100270.53;6303128;22;20015;-78
2022/10/02 11:38:54;;;;;;;0.10;0.05;;;;;;;17.43;100.00;100274.63;6277783;22;20011;-78
2022/10/02 11:42:05;;;;;;;0.00;0.00;;;;;;;17.40;100.00;100267.94;6306001;22;20011;-78
2022/10/02 11:44:50;;;;;;;0.08;0.08;;;;;;;17.37;100.00;100263.28;6289461;22;20023;-79
2022/10/02 11:47:28;;;;;;;0.00;0.00;;;;;;;17.38;100.00;100247.22;6305422;22;20470;-79
2022/10/02 11:50:14;;;;;;;0.00;0.00;;;;;;;17.46;100.00;100259.63;6306185;22;20015;-78
2022/10/02 11:52:59;;;;;;;0.00;0.00;;;;;;;17.47;100.00;100244.38;6306206;22;20011;-78
2022/10/02 11:55:36;;;;;;;0.20;0.20;;;;;;;17.41;100.00;100241.44;6305905;22;20887;-78
2022/10/02 11:58:12;;;;;;;0.30;0.20;;;;;;;17.53;100.00;100237.59;6306517;22;20021;-79
2022/10/02 12:01:25;;;;;;;0.00;0.00;;;;;;;17.63;100.00;100244.69;6277961;22;20086;-78
2022/10/02 12:03:55;;;;;;;0.00;0.00;;;;;;;17.63;100.00;100241.16;6210862;23;20031;-78
2022/10/02 12:07:09;;;;;;;0.50;0.10;;;;;;;17.65;100.00;100239.41;6287565;22;20076;-78
2022/10/02 12:09:37;;;;;;;0.10;0.10;;;;;;;17.69;100.00;100236.41;6257218;22;20056;-78
2022/10/02 12:12:26;;;;;;;0.20;0.20;;;;;;;17.65;100.00;100231.00;6279024;22;20011;-78
2022/10/02 12:15:00;;;;;;;0.00;0.00;;;;;;;17.71;100.00;100229.03;6305808;22;20012;-78
2022/10/02 12:17:31;;;;;;;0.20;0.20;;;;;;;17.70;100.00;100221.91;6305296;22;20073;-78
2022/10/02 12:29:05;;;;;;;0.00;0.00;;;;;;;17.63;100.00;100227.88;6305906;22;20038;-78
2022/10/02 12:31:31;;;;;;;0.00;0.00;;;;;;;17.62;100.00;100229.16;6277745;22;20012;-78
2022/10/02 12:34:33;;;;;;;0.13;0.10;;;;;;;17.64;100.00;100229.44;6306051;22;20003;-78